Terminal Aerodrome Forecast
Issued by NWS

Home | Current Version | Previous Version | Text Only | Print | Product List | Glossary On
Versions: 1 2 3 4 5 6 7 8 9 10 11 12 13 14 15 16 17 18 19 20 21 22 23 24
711
FTUS41 KBUF 092338
TAFJHW
TAF
KJHW 092338Z 1000/1024 25011G20KT P6SM VCSH OVC012
      TEMPO 1000/1003 2SM -SHSN BKN009
     FM100900 26016G23KT 2SM -SHSN OVC012
     FM101700 27015KT 1/2SM SN OVC012
     FM102100 28013G19KT 1/2SM SN OVC015
      AMD LTD TO CLD VIS AND WIND=

USA.gov is the U.S. government's official web portal to all federal, state and local government web resources and services.